FW2057 Weather Reports


time (UTC)temp
F
wind
direction
speed
knots
gust
knots
rain 1hr
in
rain 24hr
in
rain mn
in
humidity
%
barometer
mb
20220930154538 70 87 1.7 5.2 0.00 0.00 0.00 44 1022.2
20220930153110 68 94 2.6 4.3 0.00 0.00 0.00 47 1022.2
20220930151603 67 126 2.6 6.1 0.00 0.00 0.00 50 1022.3
20220930151520 67 126 2.6 6.1 0.00 0.00 0.00 50 1022.3
20220930150032 65 95 1.7 3.5 0.00 0.00 0.00 55 1022.4
20220930144526 63 51 1.7 2.6 0.00 0.00 0.00 62 1022.4
20220930143017 61 72 1.7 2.6 0.00 0.00 0.00 68 1022.3
20220930141530 59 98 0.0 2.6 0.00 0.00 0.00 74 1022.3
20220930140107 56 105 0.9 3.5 0.00 0.00 0.00 82 1022.3
20220930140025 56 105 0.9 3.5 0.00 0.00 0.00 82 1022.3
20220930134515 53 115 0.0 0.0 0.00 0.00 0.00 94 1022.3
20220930133028 50 115 0.0 0.9 0.00 0.00 0.00 96 1022.3
20220930131602 47 115 0.0 0.0 0.00 0.00 0.00 95 1022.4
20220930130057 45 115 0.0 0.0 0.00 0.00 0.00 93 1022.3
20220930130015 45 115 0.0 0.0 0.00 0.00 0.00 93 1022.3
20220930124529 44 115 0.0 0.0 0.00 0.00 0.00 89 1022.2
20220930123041 45 115 0.0 0.0 0.00 0.00 0.00 88 1022.0
20220930121558 45 115 0.0 0.0 0.00 0.00 0.00 88 1022.0
20220930120109 45 115 0.0 0.0 0.00 0.00 0.00 88 1021.9
20220930120026 45 115 0.0 0.0 0.00 0.00 0.00 88 1021.9
20220930114518 45 115 0.0 0.0 0.00 0.00 0.00 88 1021.9
20220930113112 46 115 0.0 0.0 0.00 0.00 0.00 87 1022.0
20220930113031 46 115 0.0 0.0 0.00 0.00 0.00 87 1022.0
20220930111606 46 115 0.0 0.0 0.00 0.00 0.00 87 1021.9
20220930110036 46 115 0.0 0.0 0.00 0.01 0.00 86 1022.0
20220930104523 46 115 0.0 0.0 0.00 0.01 0.00 86 1021.9
20220930103014 47 115 0.0 0.0 0.00 0.01 0.00 86 1021.9
20220930101550 47 115 0.0 0.0 0.00 0.01 0.00 85 1021.9
20220930100042 47 115 0.0 0.9 0.00 0.01 0.00 84 1021.9
20220930094512 48 115 0.0 0.0 0.00 0.01 0.00 84 1021.8
20220930093027 48 115 0.0 0.0 0.00 0.01 0.00 83 1021.8
20220930091542 48 115 0.0 0.0 0.00 0.01 0.00 83 1021.8
20220930090053 49 115 0.0 0.0 0.00 0.01 0.00 82 1021.8
20220930090011 49 115 0.0 0.0 0.00 0.01 0.00 82 1021.8
20220930084544 49 115 0.0 0.0 0.00 0.01 0.00 81 1021.9
20220930083100 49 115 0.0 0.9 0.00 0.01 0.00 79 1022.2
20220930081529 50 115 0.0 0.0 0.00 0.01 0.00 79 1022.2
20220930080019 51 115 0.0 0.0 0.00 0.01 0.00 78 1022.3
20220930074515 52 115 0.0 0.0 0.00 0.01 0.00 78 1022.4
20220930073026 52 115 0.0 0.0 0.00 0.01 0.00 75 1022.6
20220930071540 53 115 0.0 0.0 0.00 0.01 0.00 74 1022.6
20220930070050 54 115 0.0 0.0 0.00 0.01 0.00 73 1022.6
20220930064524 55 115 0.0 0.0 0.00 0.01 0.00 72 1022.6
20220930063057 56 115 0.0 0.0 0.00 0.01 0.00 68 1022.5
20220930063014 56 115 0.0 0.0 0.00 0.01 0.00 68 1022.5
20220930061547 58 115 0.0 1.7 0.00 0.01 0.00 64 1022.5
20220930060017 60 115 0.0 1.7 0.00 0.01 0.00 59 1022.5
20220930054556 60 117 0.9 2.6 0.00 0.01 0.00 59 1022.5
20220930054513 60 117 0.9 2.6 0.00 0.01 0.00 59 1022.5
20220930053024 61 117 0.0 1.7 0.00 0.01 0.00 57 1022.5
20220930051538 61 118 0.9 2.6 0.00 0.01 0.00 57 1022.4
20220930050011 62 121 0.0 3.5 0.00 0.01 0.01 56 1022.2
20220930044606 62 88 0.9 3.5 0.00 0.01 0.01 56 1022.0
20220930044523 62 88 0.9 3.5 0.00 0.01 0.01 56 1022.0
20220930043015 62 91 0.9 3.5 0.00 0.01 0.01 57 1022.0
20220930041547 62 89 0.0 2.6 0.00 0.01 0.01 57 1022.2
20220930040020 62 86 0.9 2.6 0.00 0.01 0.01 58 1022.1
20220930034513 62 62 0.9 2.6 0.00 0.01 0.01 61 1022.0
20220930033047 60 88 0.9 3.5 0.00 0.01 0.01 67 1022.0
20220930031543 59 101 0.0 0.0 0.00 0.01 0.01 72 1021.8
20220930030052 60 101 0.0 0.9 0.00 0.01 0.01 74 1021.7
20220930024603 60 102 0.0 0.9 0.00 0.01 0.01 75 1021.7
20220930024521 60 102 0.0 0.9 0.00 0.01 0.01 75 1021.7
20220930023031 60 102 0.0 0.0 0.00 0.01 0.01 74 1021.7
20220930021548 61 102 0.0 0.0 0.00 0.01 0.01 72 1021.6
20220930020018 62 102 0.0 0.0 0.00 0.01 0.01 70 1021.5
20220930014528 64 102 0.0 0.0 0.00 0.01 0.01 69 1021.4
20220930013041 65 102 0.0 0.0 0.00 0.01 0.01 66 1021.4
20220930011515 67 102 0.0 0.0 0.00 0.01 0.01 63 1021.3
20220930010109 69 102 0.0 0.0 0.00 0.01 0.01 59 1021.3
20220930010027 69 102 0.0 0.0 0.00 0.01 0.01 59 1021.3
20220930004601 70 102 0.0 2.6 0.00 0.01 0.01 55 1021.2
20220930004518 70 102 0.0 2.6 0.00 0.01 0.01 55 1021.2
20220930003012 70 103 0.0 0.0 0.00 0.01 0.01 58 1021.1
20220930001525 73 103 0.0 0.0 0.00 0.01 0.01 52 1021.0
20220930000056 76 103 0.0 0.9 0.00 0.01 0.01 51 1021.2
20220929234609 78 103 0.0 2.6 0.00 0.01 0.01 42 1021.1
20220929234526 78 103 0.0 2.6 0.00 0.01 0.01 42 1021.1
20220929233042 79 103 0.0 1.7 0.00 0.01 0.01 37 1021.1
20220929231513 80 103 1.7 3.5 0.00 0.01 0.01 34 1021.1
20220929230107 81 103 1.7 3.5 0.00 0.01 0.01 33 1021.2
20220929230024 81 103 1.7 3.5 0.00 0.01 0.01 33 1021.2
20220929224520 81 128 1.7 3.5 0.00 0.01 0.01 31 1021.1
20220929223029 82 49 0.9 5.2 0.00 0.01 0.01 32 1021.2
20220929221545 82 30 0.9 4.3 0.00 0.01 0.01 30 1021.2
20220929220056 82 124 0.9 7.0 0.00 0.01 0.01 32 1021.4
20220929220014 82 124 0.9 7.0 0.00 0.01 0.01 32 1021.4
20220929214611 82 90 1.7 3.5 0.00 0.01 0.01 30 1021.5
20220929214529 82 90 1.7 3.5 0.00 0.01 0.01 30 1021.5
20220929213041 82 44 2.6 4.3 0.00 0.01 0.01 28 1021.7
20220929211556 82 96 2.6 5.2 0.00 0.01 0.01 29 1021.7
20220929211512 82 96 2.6 5.2 0.00 0.01 0.01 29 1021.7
20220929210023 83 136 1.7 3.5 0.00 0.01 0.01 27 1021.8
20220929204603 82 134 0.9 3.5 0.00 0.01 0.01 28 1022.1
20220929204520 82 134 0.9 3.5 0.00 0.01 0.01 28 1022.1
20220929203010 82 132 2.6 7.8 0.00 0.01 0.01 30 1022.3
20220929201524 82 165 2.6 4.3 0.00 0.01 0.01 30 1022.4
20220929200059 81 95 2.6 5.2 0.00 0.01 0.01 32 1022.7
20220929200016 81 95 2.6 5.2 0.00 0.01 0.01 32 1022.7
20220929194510 81 117 3.5 7.0 0.00 0.01 0.01 31 1022.9
20220929193104 80 45 1.7 7.8 0.00 0.01 0.01 33 1023.3
20220929193018 80 45 1.7 7.8 0.00 0.01 0.01 33 1023.3
20220929191549 80 38 3.5 6.1 0.00 0.01 0.01 32 1023.8
20220929190103 79 37 2.6 5.2 0.00 0.01 0.01 34 1024.0
20220929184511 78 101 1.7 6.1 0.00 0.01 0.01 35 1024.5
20220929183043 78 68 2.6 5.2 0.00 0.01 0.01 36 1024.7
20220929181539 77 128 2.6 6.1 0.00 0.01 0.01 34 1025.0
20220929180104 77 360 2.6 5.2 0.00 0.01 0.01 36 1025.2
20220929180022 77 360 2.6 5.2 0.00 0.01 0.01 36 1025.2
20220929174534 76 120 2.6 7.0 0.00 0.01 0.01 36 1025.5
20220929173045 75 101 3.5 7.8 0.00 0.01 0.01 34 1025.8
20220929171520 74 126 4.3 8.7 0.00 0.01 0.01 37 1026.5
20220929170053 74 126 2.6 7.0 0.00 0.01 0.01 38 1026.8
20220929170011 74 126 2.6 7.0 0.00 0.01 0.01 38 1026.8
20220929164608 73 65 2.6 6.1 0.00 0.01 0.01 37 1026.9
20220929164525 73 65 2.6 6.1 0.00 0.01 0.01 37 1026.9
20220929163058 72 121 1.7 7.0 0.00 0.01 0.01 42 1027.3
20220929161511 71 80 3.5 7.8 0.00 0.01 0.01 41 1027.7
20220929160043 71 113 4.3 7.8 0.00 0.01 0.01 41 1027.8